sensor_id;sensor_type;location;lat;lon;timestamp;P1;durP1;ratioP1;P2;durP2;ratioP2
23360;SDS011;11852;50.082;18.554;2024-01-07T00:00:58;19.2;;;12.6;;
23360;SDS011;11852;50.082;18.554;2024-01-07T00:02:03;18.6;;;12.0;;
23360;SDS011;11852;50.082;18.554;2024-01-07T00:03:08;18.8;;;12.6;;
23360;SDS011;11852;50.082;18.554;2024-01-07T00:04:14;21.1;;;12.9;;
23360;SDS011;11852;50.082;18.554;2024-01-07T00:05:18;19.3;;;13.2;;
23360;SDS011;11852;50.082;18.554;2024-01-07T00:06:22;20.9;;;13.7;;
23360;SDS011;11852;50.082;18.554;2024-01-07T00:07:27;20.5;;;12.9;;
23360;SDS011;11852;50.082;18.554;2024-01-07T00:08:32;20.0;;;13.2;;
23360;SDS011;11852;50.082;18.554;2024-01-07T00:09:37;20.7;;;13.1;;
23360;SDS011;11852;50.082;18.554;2024-01-07T00:10:42;19.2;;;12.9;;
23360;SDS011;11852;50.082;18.554;2024-01-07T00:11:46;19.1;;;12.4;;
23360;SDS011;11852;50.082;18.554;2024-01-07T00:12:51;19.1;;;12.9;;
23360;SDS011;11852;50.082;18.554;2024-01-07T00:13:56;18.6;;;12.4;;
23360;SDS011;11852;50.082;18.554;2024-01-07T00:15:01;21.4;;;13.7;;
23360;SDS011;11852;50.082;18.554;2024-01-07T00:16:06;19.9;;;12.9;;
23360;SDS011;11852;50.082;18.554;2024-01-07T00:17:10;18.6;;;12.5;;
23360;SDS011;11852;50.082;18.554;2024-01-07T00:18:15;19.2;;;13.0;;
23360;SDS011;11852;50.082;18.554;2024-01-07T00:19:20;18.6;;;13.2;;
23360;SDS011;11852;50.082;18.554;2024-01-07T00:20:25;21.3;;;13.6;;
23360;SDS011;11852;50.082;18.554;2024-01-07T00:21:30;19.7;;;13.1;;
23360;SDS011;11852;50.082;18.554;2024-01-07T00:22:35;19.1;;;12.9;;
23360;SDS011;11852;50.082;18.554;2024-01-07T00:23:40;19.1;;;12.2;;
23360;SDS011;11852;50.082;18.554;2024-01-07T00:24:45;19.5;;;11.5;;
23360;SDS011;11852;50.082;18.554;2024-01-07T00:25:49;19.7;;;12.6;;
23360;SDS011;11852;50.082;18.554;2024-01-07T00:26:55;18.2;;;11.9;;
23360;SDS011;11852;50.082;18.554;2024-01-07T00:27:59;18.0;;;11.2;;
23360;SDS011;11852;50.082;18.554;2024-01-07T00:29:04;16.7;;;11.1;;
23360;SDS011;11852;50.082;18.554;2024-01-07T00:30:09;17.3;;;10.7;;
23360;SDS011;11852;50.082;18.554;2024-01-07T00:31:14;17.3;;;10.5;;
23360;SDS011;11852;50.082;18.554;2024-01-07T00:32:19;16.2;;;10.6;;
23360;SDS011;11852;50.082;18.554;2024-01-07T00:33:23;16.3;;;10.3;;
23360;SDS011;11852;50.082;18.554;2024-01-07T00:34:28;16.0;;;9.9;;
23360;SDS011;11852;50.082;18.554;2024-01-07T00:35:33;15.8;;;10.0;;
23360;SDS011;11852;50.082;18.554;2024-01-07T00:36:38;16.3;;;9.9;;
23360;SDS011;11852;50.082;18.554;2024-01-07T00:37:43;16.8;;;10.4;;
23360;SDS011;11852;50.082;18.554;2024-01-07T00:38:47;18.9;;;10.3;;
23360;SDS011;11852;50.082;18.554;2024-01-07T00:39:52;16.4;;;9.3;;
23360;SDS011;11852;50.082;18.554;2024-01-07T00:40:57;14.5;;;9.1;;
23360;SDS011;11852;50.082;18.554;2024-01-07T00:42:02;15.7;;;9.8;;
23360;SDS011;11852;50.082;18.554;2024-01-07T00:43:07;16.2;;;10.3;;
23360;SDS011;11852;50.082;18.554;2024-01-07T00:44:11;14.6;;;9.6;;
23360;SDS011;11852;50.082;18.554;2024-01-07T00:45:17;15.7;;;8.9;;
23360;SDS011;11852;50.082;18.554;2024-01-07T00:46:21;16.0;;;10.2;;
23360;SDS011;11852;50.082;18.554;2024-01-07T00:47:26;15.2;;;9.6;;
23360;SDS011;11852;50.082;18.554;2024-01-07T00:48:31;14.5;;;8.9;;
23360;SDS011;11852;50.082;18.554;2024-01-07T00:49:36;15.0;;;9.0;;
23360;SDS011;11852;50.082;18.554;2024-01-07T00:50:40;15.4;;;9.8;;
23360;SDS011;11852;50.082;18.554;2024-01-07T00:51:45;15.4;;;9.8;;
23360;SDS011;11852;50.082;18.554;2024-01-07T00:52:50;15.4;;;9.8;;
23360;SDS011;11852;50.082;18.554;2024-01-07T00:53:55;15.4;;;9.8;;
23360;SDS011;11852;50.082;18.554;2024-01-07T00:55:00;15.4;;;9.8;;
23360;SDS011;11852;50.082;18.554;2024-01-07T00:56:05;15.4;;;9.8;;
23360;SDS011;11852;50.082;18.554;2024-01-07T00:57:13;18.0;;;10.8;;
23360;SDS011;11852;50.082;18.554;2024-01-07T00:58:18;18.0;;;10.8;;
23360;SDS011;11852;50.082;18.554;2024-01-07T00:59:23;18.0;;;10.8;;
23360;SDS011;11852;50.082;18.554;2024-01-07T01:00:28;18.0;;;10.8;;
23360;SDS011;11852;50.082;18.554;2024-01-07T01:01:32;16.8;;;11.0;;
23360;SDS011;11852;50.082;18.554;2024-01-07T01:02:37;17.5;;;10.2;;
23360;SDS011;11852;50.082;18.554;2024-01-07T01:03:42;16.6;;;11.2;;
23360;SDS011;11852;50.082;18.554;2024-01-07T01:04:47;18.9;;;12.1;;
23360;SDS011;11852;50.082;18.554;2024-01-07T01:05:52;17.6;;;11.6;;
23360;SDS011;11852;50.082;18.554;2024-01-07T01:06:57;16.5;;;11.3;;
23360;SDS011;11852;50.082;18.554;2024-01-07T01:08:01;17.8;;;11.5;;
23360;SDS011;11852;50.082;18.554;2024-01-07T01:09:06;17.8;;;11.4;;
23360;SDS011;11852;50.082;18.554;2024-01-07T01:10:12;16.2;;;10.3;;
23360;SDS011;11852;50.082;18.554;2024-01-07T01:11:16;18.3;;;11.5;;
23360;SDS011;11852;50.082;18.554;2024-01-07T01:12:21;17.3;;;10.8;;
23360;SDS011;11852;50.082;18.554;2024-01-07T01:13:25;17.3;;;10.8;;
23360;SDS011;11852;50.082;18.554;2024-01-07T01:14:30;17.3;;;10.8;;
23360;SDS011;11852;50.082;18.554;2024-01-07T01:15:35;16.0;;;10.3;;
23360;SDS011;11852;50.082;18.554;2024-01-07T01:16:40;17.2;;;10.0;;
23360;SDS011;11852;50.082;18.554;2024-01-07T01:17:44;15.6;;;9.9;;
23360;SDS011;11852;50.082;18.554;2024-01-07T01:18:50;15.9;;;9.9;;
23360;SDS011;11852;50.082;18.554;2024-01-07T01:19:54;16.3;;;10.1;;
23360;SDS011;11852;50.082;18.554;2024-01-07T01:20:59;17.2;;;10.7;;
23360;SDS011;11852;50.082;18.554;2024-01-07T01:22:04;17.2;;;10.9;;
23360;SDS011;11852;50.082;18.554;2024-01-07T01:23:09;17.3;;;10.9;;
23360;SDS011;11852;50.082;18.554;2024-01-07T01:24:14;16.6;;;11.2;;
23360;SDS011;11852;50.082;18.554;2024-01-07T01:25:19;15.7;;;10.4;;
23360;SDS011;11852;50.082;18.554;2024-01-07T01:26:24;16.5;;;10.5;;
23360;SDS011;11852;50.082;18.554;2024-01-07T01:27:28;16.8;;;10.5;;
23360;SDS011;11852;50.082;18.554;2024-01-07T01:28:33;16.0;;;10.2;;
23360;SDS011;11852;50.082;18.554;2024-01-07T01:29:38;15.3;;;10.4;;
23360;SDS011;11852;50.082;18.554;2024-01-07T01:30:43;15.9;;;11.0;;
23360;SDS011;11852;50.082;18.554;2024-01-07T01:31:48;16.5;;;10.4;;
23360;SDS011;11852;50.082;18.554;2024-01-07T01:32:53;17.0;;;10.7;;
23360;SDS011;11852;50.082;18.554;2024-01-07T01:34:00;14.5;;;9.3;;
23360;SDS011;11852;50.082;18.554;2024-01-07T01:35:05;17.4;;;10.1;;
23360;SDS011;11852;50.082;18.554;2024-01-07T01:36:10;16.0;;;10.2;;
23360;SDS011;11852;50.082;18.554;2024-01-07T01:37:15;16.0;;;10.2;;
23360;SDS011;11852;50.082;18.554;2024-01-07T01:38:20;16.0;;;10.2;;
23360;SDS011;11852;50.082;18.554;2024-01-07T01:39:25;16.0;;;10.2;;
23360;SDS011;11852;50.082;18.554;2024-01-07T01:40:30;16.0;;;10.2;;
23360;SDS011;11852;50.082;18.554;2024-01-07T01:41:35;15.5;;;10.0;;
23360;SDS011;11852;50.082;18.554;2024-01-07T01:42:42;15.6;;;10.6;;
23360;SDS011;11852;50.082;18.554;2024-01-07T01:43:44;15.9;;;9.8;;
23360;SDS011;11852;50.082;18.554;2024-01-07T01:44:49;16.9;;;10.2;;
23360;SDS011;11852;50.082;18.554;2024-01-07T01:45:55;14.9;;;9.7;;
23360;SDS011;11852;50.082;18.554;2024-01-07T01:46:59;15.7;;;9.5;;
23360;SDS011;11852;50.082;18.554;2024-01-07T01:48:04;13.6;;;8.9;;
23360;SDS011;11852;50.082;18.554;2024-01-07T01:49:09;14.4;;;8.7;;
23360;SDS011;11852;50.082;18.554;2024-01-07T01:50:14;14.3;;;8.4;;
23360;SDS011;11852;50.082;18.554;2024-01-07T01:51:19;15.2;;;8.5;;
23360;SDS011;11852;50.082;18.554;2024-01-07T01:52:24;14.5;;;8.6;;
23360;SDS011;11852;50.082;18.554;2024-01-07T01:53:32;14.5;;;8.6;;
23360;SDS011;11852;50.082;18.554;2024-01-07T01:54:42;14.9;;;9.0;;
23360;SDS011;11852;50.082;18.554;2024-01-07T01:55:47;14.2;;;9.0;;
23360;SDS011;11852;50.082;18.554;2024-01-07T01:56:51;14.4;;;9.1;;
23360;SDS011;11852;50.082;18.554;2024-01-07T01:57:56;15.3;;;9.3;;
23360;SDS011;11852;50.082;18.554;2024-01-07T01:59:01;14.5;;;9.1;;
23360;SDS011;11852;50.082;18.554;2024-01-07T02:00:06;15.3;;;8.7;;
23360;SDS011;11852;50.082;18.554;2024-01-07T02:01:11;13.8;;;8.3;;
23360;SDS011;11852;50.082;18.554;2024-01-07T02:02:15;13.9;;;9.2;;
23360;SDS011;11852;50.082;18.554;2024-01-07T02:03:20;16.2;;;9.7;;
23360;SDS011;11852;50.082;18.554;2024-01-07T02:04:25;14.8;;;8.9;;
23360;SDS011;11852;50.082;18.554;2024-01-07T02:05:30;14.1;;;8.9;;
23360;SDS011;11852;50.082;18.554;2024-01-07T02:06:34;13.5;;;7.8;;
23360;SDS011;11852;50.082;18.554;2024-01-07T02:07:39;14.4;;;8.2;;
23360;SDS011;11852;50.082;18.554;2024-01-07T02:08:44;12.8;;;7.5;;
23360;SDS011;11852;50.082;18.554;2024-01-07T02:09:49;13.9;;;7.8;;
23360;SDS011;11852;50.082;18.554;2024-01-07T02:10:54;14.2;;;8.1;;
23360;SDS011;11852;50.082;18.554;2024-01-07T02:12:02;11.2;;;7.2;;
23360;SDS011;11852;50.082;18.554;2024-01-07T02:13:09;12.6;;;7.5;;
23360;SDS011;11852;50.082;18.554;2024-01-07T02:14:14;12.8;;;7.6;;
23360;SDS011;11852;50.082;18.554;2024-01-07T02:15:21;12.5;;;7.4;;
23360;SDS011;11852;50.082;18.554;2024-01-07T02:16:26;11.9;;;7.4;;
23360;SDS011;11852;50.082;18.554;2024-01-07T02:17:31;11.7;;;6.8;;
23360;SDS011;11852;50.082;18.554;2024-01-07T02:18:36;12.9;;;7.9;;
23360;SDS011;11852;50.082;18.554;2024-01-07T02:19:41;12.8;;;7.7;;
23360;SDS011;11852;50.082;18.554;2024-01-07T02:20:45;13.0;;;8.0;;
23360;SDS011;11852;50.082;18.554;2024-01-07T02:21:51;12.7;;;7.9;;
23360;SDS011;11852;50.082;18.554;2024-01-07T02:22:55;13.9;;;8.0;;
23360;SDS011;11852;50.082;18.554;2024-01-07T02:24:03;13.9;;;8.0;;
23360;SDS011;11852;50.082;18.554;2024-01-07T02:25:05;13.1;;;7.7;;
23360;SDS011;11852;50.082;18.554;2024-01-07T02:26:10;12.9;;;7.8;;
23360;SDS011;11852;50.082;18.554;2024-01-07T02:27:15;13.4;;;8.3;;
23360;SDS011;11852;50.082;18.554;2024-01-07T02:28:20;13.4;;;8.6;;
23360;SDS011;11852;50.082;18.554;2024-01-07T02:29:24;14.9;;;8.6;;
23360;SDS011;11852;50.082;18.554;2024-01-07T02:30:29;12.6;;;8.0;;
23360;SDS011;11852;50.082;18.554;2024-01-07T02:31:34;13.1;;;7.8;;
23360;SDS011;11852;50.082;18.554;2024-01-07T02:32:39;12.4;;;7.6;;
23360;SDS011;11852;50.082;18.554;2024-01-07T02:33:44;13.3;;;7.7;;
23360;SDS011;11852;50.082;18.554;2024-01-07T02:34:49;12.2;;;7.2;;
23360;SDS011;11852;50.082;18.554;2024-01-07T02:35:54;12.5;;;7.4;;
23360;SDS011;11852;50.082;18.554;2024-01-07T02:37:01;12.0;;;6.6;;
23360;SDS011;11852;50.082;18.554;2024-01-07T02:38:06;13.2;;;7.9;;
23360;SDS011;11852;50.082;18.554;2024-01-07T02:39:14;13.2;;;7.6;;
23360;SDS011;11852;50.082;18.554;2024-01-07T02:40:19;12.8;;;7.2;;
23360;SDS011;11852;50.082;18.554;2024-01-07T02:41:23;12.9;;;7.6;;
23360;SDS011;11852;50.082;18.554;2024-01-07T02:42:31;12.1;;;7.0;;
23360;SDS011;11852;50.082;18.554;2024-01-07T02:43:36;11.3;;;6.8;;
23360;SDS011;11852;50.082;18.554;2024-01-07T02:44:41;11.6;;;6.9;;
23360;SDS011;11852;50.082;18.554;2024-01-07T02:45:45;12.9;;;7.4;;
23360;SDS011;11852;50.082;18.554;2024-01-07T02:46:50;12.8;;;7.1;;
23360;SDS011;11852;50.082;18.554;2024-01-07T02:47:55;12.3;;;6.6;;
23360;SDS011;11852;50.082;18.554;2024-01-07T02:49:00;9.7;;;5.5;;
23360;SDS011;11852;50.082;18.554;2024-01-07T02:50:08;9.7;;;5.3;;
23360;SDS011;11852;50.082;18.554;2024-01-07T02:51:13;11.0;;;5.8;;
23360;SDS011;11852;50.082;18.554;2024-01-07T02:52:17;10.8;;;6.0;;
23360;SDS011;11852;50.082;18.554;2024-01-07T02:53:22;9.5;;;4.9;;
23360;SDS011;11852;50.082;18.554;2024-01-07T02:54:27;9.5;;;4.9;;
23360;SDS011;11852;50.082;18.554;2024-01-07T02:55:32;8.9;;;4.9;;
23360;SDS011;11852;50.082;18.554;2024-01-07T02:56:37;8.9;;;5.1;;
23360;SDS011;11852;50.082;18.554;2024-01-07T02:57:41;8.8;;;4.6;;
23360;SDS011;11852;50.082;18.554;2024-01-07T02:58:46;7.7;;;4.6;;
23360;SDS011;11852;50.082;18.554;2024-01-07T02:59:51;9.4;;;4.9;;
23360;SDS011;11852;50.082;18.554;2024-01-07T03:00:56;10.1;;;5.6;;
23360;SDS011;11852;50.082;18.554;2024-01-07T03:02:01;9.7;;;5.3;;
23360;SDS011;11852;50.082;18.554;2024-01-07T03:03:06;8.9;;;4.8;;
23360;SDS011;11852;50.082;18.554;2024-01-07T03:04:12;9.9;;;5.7;;
23360;SDS011;11852;50.082;18.554;2024-01-07T03:05:15;10.1;;;5.2;;
23360;SDS011;11852;50.082;18.554;2024-01-07T03:06:20;9.5;;;5.5;;
23360;SDS011;11852;50.082;18.554;2024-01-07T03:07:25;10.0;;;5.7;;
23360;SDS011;11852;50.082;18.554;2024-01-07T03:08:30;11.3;;;5.7;;
23360;SDS011;11852;50.082;18.554;2024-01-07T03:09:38;9.7;;;5.6;;
23360;SDS011;11852;50.082;18.554;2024-01-07T03:10:43;10.4;;;5.6;;
23360;SDS011;11852;50.082;18.554;2024-01-07T03:11:47;10.8;;;6.4;;
23360;SDS011;11852;50.082;18.554;2024-01-07T03:12:52;10.8;;;6.4;;
23360;SDS011;11852;50.082;18.554;2024-01-07T03:14:00;10.3;;;5.6;;
23360;SDS011;11852;50.082;18.554;2024-01-07T03:15:05;10.2;;;5.5;;
23360;SDS011;11852;50.082;18.554;2024-01-07T03:16:18;9.3;;;5.2;;
23360;SDS011;11852;50.082;18.554;2024-01-07T03:17:15;10.0;;;5.6;;
23360;SDS011;11852;50.082;18.554;2024-01-07T03:18:20;9.5;;;5.4;;
23360;SDS011;11852;50.082;18.554;2024-01-07T03:19:25;9.6;;;5.3;;
23360;SDS011;11852;50.082;18.554;2024-01-07T03:20:33;9.5;;;5.0;;
23360;SDS011;11852;50.082;18.554;2024-01-07T03:21:39;9.9;;;5.6;;
23360;SDS011;11852;50.082;18.554;2024-01-07T03:22:44;9.2;;;5.5;;
23360;SDS011;11852;50.082;18.554;2024-01-07T03:23:49;10.8;;;6.0;;
23360;SDS011;11852;50.082;18.554;2024-01-07T03:24:54;10.5;;;6.0;;
23360;SDS011;11852;50.082;18.554;2024-01-07T03:25:58;10.5;;;5.6;;
23360;SDS011;11852;50.082;18.554;2024-01-07T03:27:03;10.4;;;5.5;;
23360;SDS011;11852;50.082;18.554;2024-01-07T03:28:08;10.4;;;5.3;;
23360;SDS011;11852;50.082;18.554;2024-01-07T03:29:16;9.2;;;5.3;;
23360;SDS011;11852;50.082;18.554;2024-01-07T03:30:21;10.0;;;5.6;;
23360;SDS011;11852;50.082;18.554;2024-01-07T03:31:26;10.7;;;5.7;;
23360;SDS011;11852;50.082;18.554;2024-01-07T03:32:31;10.7;;;5.7;;
23360;SDS011;11852;50.082;18.554;2024-01-07T03:33:37;9.1;;;5.1;;
23360;SDS011;11852;50.082;18.554;2024-01-07T03:34:43;9.2;;;5.2;;
23360;SDS011;11852;50.082;18.554;2024-01-07T03:35:48;11.0;;;5.6;;
23360;SDS011;11852;50.082;18.554;2024-01-07T03:36:53;11.0;;;5.8;;
23360;SDS011;11852;50.082;18.554;2024-01-07T03:38:03;10.8;;;5.3;;
23360;SDS011;11852;50.082;18.554;2024-01-07T03:39:11;10.1;;;5.6;;
23360;SDS011;11852;50.082;18.554;2024-01-07T03:40:16;10.0;;;5.1;;
23360;SDS011;11852;50.082;18.554;2024-01-07T03:41:21;9.5;;;5.3;;
23360;SDS011;11852;50.082;18.554;2024-01-07T03:42:26;10.1;;;5.3;;
23360;SDS011;11852;50.082;18.554;2024-01-07T03:43:31;9.5;;;5.0;;
23360;SDS011;11852;50.082;18.554;2024-01-07T03:44:35;9.9;;;5.2;;
23360;SDS011;11852;50.082;18.554;2024-01-07T03:45:40;9.5;;;5.4;;
23360;SDS011;11852;50.082;18.554;2024-01-07T03:46:45;9.5;;;5.2;;
23360;SDS011;11852;50.082;18.554;2024-01-07T03:47:50;9.2;;;4.8;;
23360;SDS011;11852;50.082;18.554;2024-01-07T03:48:55;9.5;;;5.0;;
23360;SDS011;11852;50.082;18.554;2024-01-07T03:49:59;10.0;;;5.1;;
23360;SDS011;11852;50.082;18.554;2024-01-07T03:51:04;10.4;;;5.3;;
23360;SDS011;11852;50.082;18.554;2024-01-07T03:52:09;9.5;;;5.4;;
23360;SDS011;11852;50.082;18.554;2024-01-07T03:53:14;9.2;;;5.0;;
23360;SDS011;11852;50.082;18.554;2024-01-07T03:54:19;9.4;;;5.0;;
23360;SDS011;11852;50.082;18.554;2024-01-07T03:55:23;9.3;;;5.1;;
23360;SDS011;11852;50.082;18.554;2024-01-07T03:56:28;8.5;;;4.7;;
23360;SDS011;11852;50.082;18.554;2024-01-07T03:57:33;9.6;;;4.9;;
23360;SDS011;11852;50.082;18.554;2024-01-07T03:58:38;8.3;;;4.5;;
23360;SDS011;11852;50.082;18.554;2024-01-07T03:59:45;8.1;;;4.4;;
23360;SDS011;11852;50.082;18.554;2024-01-07T04:00:50;9.2;;;4.5;;
23360;SDS011;11852;50.082;18.554;2024-01-07T04:01:57;9.0;;;4.8;;
23360;SDS011;11852;50.082;18.554;2024-01-07T04:03:02;7.8;;;4.2;;
23360;SDS011;11852;50.082;18.554;2024-01-07T04:04:07;9.6;;;4.8;;
23360;SDS011;11852;50.082;18.554;2024-01-07T04:05:13;7.5;;;4.6;;
23360;SDS011;11852;50.082;18.554;2024-01-07T04:06:17;8.2;;;4.2;;
23360;SDS011;11852;50.082;18.554;2024-01-07T04:07:22;8.8;;;4.1;;
23360;SDS011;11852;50.082;18.554;2024-01-07T04:08:27;7.5;;;4.1;;
23360;SDS011;11852;50.082;18.554;2024-01-07T04:09:32;8.2;;;4.2;;
23360;SDS011;11852;50.082;18.554;2024-01-07T04:10:37;8.1;;;4.2;;
23360;SDS011;11852;50.082;18.554;2024-01-07T04:11:42;8.9;;;4.4;;
23360;SDS011;11852;50.082;18.554;2024-01-07T04:12:46;7.7;;;4.2;;
23360;SDS011;11852;50.082;18.554;2024-01-07T04:13:54;7.9;;;4.2;;
23360;SDS011;11852;50.082;18.554;2024-01-07T04:14:59;9.3;;;4.5;;
23360;SDS011;11852;50.082;18.554;2024-01-07T04:16:04;7.7;;;4.5;;
23360;SDS011;11852;50.082;18.554;2024-01-07T04:17:09;8.5;;;4.6;;
23360;SDS011;11852;50.082;18.554;2024-01-07T04:18:13;7.9;;;4.0;;
23360;SDS011;11852;50.082;18.554;2024-01-07T04:19:18;8.5;;;4.7;;
23360;SDS011;11852;50.082;18.554;2024-01-07T04:20:23;9.9;;;4.9;;
23360;SDS011;11852;50.082;18.554;2024-01-07T04:21:28;8.9;;;4.9;;
23360;SDS011;11852;50.082;18.554;2024-01-07T04:22:33;9.0;;;4.9;;
23360;SDS011;11852;50.082;18.554;2024-01-07T04:23:38;9.3;;;4.7;;
23360;SDS011;11852;50.082;18.554;2024-01-07T04:24:42;10.0;;;5.3;;
23360;SDS011;11852;50.082;18.554;2024-01-07T04:25:47;9.1;;;5.1;;
23360;SDS011;11852;50.082;18.554;2024-01-07T04:26:52;9.6;;;5.1;;
23360;SDS011;11852;50.082;18.554;2024-01-07T04:27:57;8.4;;;4.5;;
23360;SDS011;11852;50.082;18.554;2024-01-07T04:29:02;9.5;;;4.8;;
23360;SDS011;11852;50.082;18.554;2024-01-07T04:30:06;8.6;;;4.7;;
23360;SDS011;11852;50.082;18.554;2024-01-07T04:31:11;8.9;;;4.6;;
23360;SDS011;11852;50.082;18.554;2024-01-07T04:32:16;10.4;;;5.2;;
23360;SDS011;11852;50.082;18.554;2024-01-07T04:33:21;10.2;;;5.4;;
23360;SDS011;11852;50.082;18.554;2024-01-07T04:34:26;9.1;;;5.1;;
23360;SDS011;11852;50.082;18.554;2024-01-07T04:35:32;8.8;;;4.9;;
23360;SDS011;11852;50.082;18.554;2024-01-07T04:36:37;9.0;;;4.9;;
23360;SDS011;11852;50.082;18.554;2024-01-07T04:37:42;10.0;;;5.0;;
23360;SDS011;11852;50.082;18.554;2024-01-07T04:38:47;9.3;;;5.1;;
23360;SDS011;11852;50.082;18.554;2024-01-07T04:39:51;10.0;;;5.2;;
23360;SDS011;11852;50.082;18.554;2024-01-07T04:40:56;10.4;;;5.4;;
23360;SDS011;11852;50.082;18.554;2024-01-07T04:42:01;11.5;;;6.1;;
23360;SDS011;11852;50.082;18.554;2024-01-07T04:43:06;10.6;;;5.7;;
23360;SDS011;11852;50.082;18.554;2024-01-07T04:44:11;12.6;;;5.8;;
23360;SDS011;11852;50.082;18.554;2024-01-07T04:45:16;10.6;;;6.1;;
23360;SDS011;11852;50.082;18.554;2024-01-07T04:46:20;9.0;;;5.1;;
23360;SDS011;11852;50.082;18.554;2024-01-07T04:48:35;12.5;;;5.7;;
23360;SDS011;11852;50.082;18.554;2024-01-07T04:49:40;9.4;;;5.4;;
23360;SDS011;11852;50.082;18.554;2024-01-07T04:50:45;9.9;;;5.2;;
23360;SDS011;11852;50.082;18.554;2024-01-07T04:51:50;8.3;;;4.8;;
23360;SDS011;11852;50.082;18.554;2024-01-07T04:52:54;8.2;;;4.6;;
23360;SDS011;11852;50.082;18.554;2024-01-07T04:53:59;9.8;;;5.0;;
23360;SDS011;11852;50.082;18.554;2024-01-07T04:55:04;9.5;;;5.3;;
23360;SDS011;11852;50.082;18.554;2024-01-07T04:56:09;8.7;;;4.8;;
23360;SDS011;11852;50.082;18.554;2024-01-07T04:57:15;9.4;;;4.7;;
23360;SDS011;11852;50.082;18.554;2024-01-07T04:58:20;8.8;;;5.0;;
23360;SDS011;11852;50.082;18.554;2024-01-07T04:59:25;8.8;;;4.5;;
23360;SDS011;11852;50.082;18.554;2024-01-07T05:00:30;9.4;;;4.8;;
23360;SDS011;11852;50.082;18.554;2024-01-07T05:01:34;8.8;;;4.6;;
23360;SDS011;11852;50.082;18.554;2024-01-07T05:02:39;7.6;;;4.1;;
23360;SDS011;11852;50.082;18.554;2024-01-07T05:03:44;8.6;;;4.6;;
23360;SDS011;11852;50.082;18.554;2024-01-07T05:04:49;9.0;;;4.4;;
23360;SDS011;11852;50.082;18.554;2024-01-07T05:05:54;8.4;;;4.6;;
23360;SDS011;11852;50.082;18.554;2024-01-07T05:06:58;8.7;;;4.7;;
23360;SDS011;11852;50.082;18.554;2024-01-07T05:08:03;8.7;;;4.6;;
23360;SDS011;11852;50.082;18.554;2024-01-07T05:09:08;9.1;;;4.6;;
23360;SDS011;11852;50.082;18.554;2024-01-07T05:10:16;9.7;;;5.1;;
23360;SDS011;11852;50.082;18.554;2024-01-07T05:11:20;9.7;;;5.1;;
23360;SDS011;11852;50.082;18.554;2024-01-07T05:12:25;9.7;;;5.1;;
23360;SDS011;11852;50.082;18.554;2024-01-07T05:13:30;8.7;;;4.6;;
23360;SDS011;11852;50.082;18.554;2024-01-07T05:14:35;9.0;;;5.0;;
23360;SDS011;11852;50.082;18.554;2024-01-07T05:15:40;9.0;;;4.8;;
23360;SDS011;11852;50.082;18.554;2024-01-07T05:16:45;9.4;;;4.9;;
23360;SDS011;11852;50.082;18.554;2024-01-07T05:17:50;9.1;;;5.1;;
23360;SDS011;11852;50.082;18.554;2024-01-07T05:18:54;9.6;;;4.9;;
23360;SDS011;11852;50.082;18.554;2024-01-07T05:19:59;9.5;;;4.9;;
23360;SDS011;11852;50.082;18.554;2024-01-07T05:21:05;8.1;;;4.5;;
23360;SDS011;11852;50.082;18.554;2024-01-07T05:22:09;9.2;;;4.8;;
23360;SDS011;11852;50.082;18.554;2024-01-07T05:23:14;9.1;;;5.0;;
23360;SDS011;11852;50.082;18.554;2024-01-07T05:24:19;8.8;;;4.6;;
23360;SDS011;11852;50.082;18.554;2024-01-07T05:25:24;9.5;;;4.9;;
23360;SDS011;11852;50.082;18.554;2024-01-07T05:26:29;8.9;;;4.5;;
23360;SDS011;11852;50.082;18.554;2024-01-07T05:27:33;9.3;;;4.5;;
23360;SDS011;11852;50.082;18.554;2024-01-07T05:28:38;9.6;;;5.0;;
23360;SDS011;11852;50.082;18.554;2024-01-07T05:29:46;9.7;;;4.8;;
23360;SDS011;11852;50.082;18.554;2024-01-07T05:30:51;10.2;;;5.2;;
23360;SDS011;11852;50.082;18.554;2024-01-07T05:31:55;11.2;;;5.2;;
23360;SDS011;11852;50.082;18.554;2024-01-07T05:33:00;9.3;;;4.5;;
23360;SDS011;11852;50.082;18.554;2024-01-07T05:34:05;10.2;;;4.5;;
23360;SDS011;11852;50.082;18.554;2024-01-07T05:35:10;9.5;;;4.9;;
23360;SDS011;11852;50.082;18.554;2024-01-07T05:36:15;9.5;;;4.7;;
23360;SDS011;11852;50.082;18.554;2024-01-07T05:37:20;11.6;;;5.0;;
23360;SDS011;11852;50.082;18.554;2024-01-07T05:38:24;9.9;;;4.9;;
23360;SDS011;11852;50.082;18.554;2024-01-07T05:39:29;10.9;;;5.5;;
23360;SDS011;11852;50.082;18.554;2024-01-07T05:40:34;11.7;;;5.6;;
23360;SDS011;11852;50.082;18.554;2024-01-07T05:41:39;10.8;;;5.4;;
23360;SDS011;11852;50.082;18.554;2024-01-07T05:42:44;12.6;;;5.4;;
23360;SDS011;11852;50.082;18.554;2024-01-07T05:43:48;10.2;;;5.1;;
23360;SDS011;11852;50.082;18.554;2024-01-07T05:44:53;9.4;;;4.8;;
23360;SDS011;11852;50.082;18.554;2024-01-07T05:45:58;10.6;;;5.3;;
23360;SDS011;11852;50.082;18.554;2024-01-07T05:47:03;9.5;;;4.9;;
23360;SDS011;11852;50.082;18.554;2024-01-07T05:48:08;8.5;;;4.5;;
23360;SDS011;11852;50.082;18.554;2024-01-07T05:49:13;10.5;;;4.5;;
23360;SDS011;11852;50.082;18.554;2024-01-07T05:50:17;8.9;;;4.4;;
23360;SDS011;11852;50.082;18.554;2024-01-07T05:51:24;9.5;;;4.7;;
23360;SDS011;11852;50.082;18.554;2024-01-07T05:52:29;11.0;;;5.5;;
23360;SDS011;11852;50.082;18.554;2024-01-07T05:53:37;8.6;;;4.4;;
23360;SDS011;11852;50.082;18.554;2024-01-07T05:54:42;9.3;;;4.4;;
23360;SDS011;11852;50.082;18.554;2024-01-07T05:55:47;9.6;;;5.1;;
23360;SDS011;11852;50.082;18.554;2024-01-07T05:56:51;9.1;;;4.7;;
23360;SDS011;11852;50.082;18.554;2024-01-07T05:57:59;11.5;;;5.0;;
23360;SDS011;11852;50.082;18.554;2024-01-07T05:59:04;10.5;;;4.7;;
23360;SDS011;11852;50.082;18.554;2024-01-07T06:00:09;10.7;;;5.2;;
23360;SDS011;11852;50.082;18.554;2024-01-07T06:02:24;9.7;;;4.6;;
23360;SDS011;11852;50.082;18.554;2024-01-07T06:03:28;9.0;;;4.6;;
23360;SDS011;11852;50.082;18.554;2024-01-07T06:04:33;9.5;;;4.6;;
23360;SDS011;11852;50.082;18.554;2024-01-07T06:05:38;9.4;;;5.1;;
23360;SDS011;11852;50.082;18.554;2024-01-07T06:06:43;9.8;;;5.0;;
23360;SDS011;11852;50.082;18.554;2024-01-07T06:07:47;10.7;;;5.0;;
23360;SDS011;11852;50.082;18.554;2024-01-07T06:08:52;9.4;;;4.5;;
23360;SDS011;11852;50.082;18.554;2024-01-07T06:09:58;9.9;;;4.8;;
23360;SDS011;11852;50.082;18.554;2024-01-07T06:11:02;10.6;;;4.3;;
23360;SDS011;11852;50.082;18.554;2024-01-07T06:12:07;9.0;;;4.5;;
23360;SDS011;11852;50.082;18.554;2024-01-07T06:13:12;11.1;;;5.3;;
23360;SDS011;11852;50.082;18.554;2024-01-07T06:14:16;9.7;;;4.8;;
23360;SDS011;11852;50.082;18.554;2024-01-07T06:15:21;8.8;;;4.6;;
23360;SDS011;11852;50.082;18.554;2024-01-07T06:16:26;8.2;;;4.2;;
23360;SDS011;11852;50.082;18.554;2024-01-07T06:17:32;11.4;;;4.1;;
23360;SDS011;11852;50.082;18.554;2024-01-07T06:18:37;8.2;;;4.0;;
23360;SDS011;11852;50.082;18.554;2024-01-07T06:19:41;8.9;;;4.4;;
23360;SDS011;11852;50.082;18.554;2024-01-07T06:20:49;8.2;;;3.8;;
23360;SDS011;11852;50.082;18.554;2024-01-07T06:21:54;7.6;;;4.0;;
23360;SDS011;11852;50.082;18.554;2024-01-07T06:22:59;7.8;;;3.9;;
23360;SDS011;11852;50.082;18.554;2024-01-07T06:24:03;7.3;;;3.7;;
23360;SDS011;11852;50.082;18.554;2024-01-07T06:25:08;9.3;;;4.4;;
23360;SDS011;11852;50.082;18.554;2024-01-07T06:26:16;7.1;;;3.8;;
23360;SDS011;11852;50.082;18.554;2024-01-07T06:27:21;7.9;;;4.2;;
23360;SDS011;11852;50.082;18.554;2024-01-07T06:28:25;8.4;;;4.4;;
23360;SDS011;11852;50.082;18.554;2024-01-07T06:29:30;8.7;;;4.2;;
23360;SDS011;11852;50.082;18.554;2024-01-07T06:30:35;9.2;;;4.6;;
23360;SDS011;11852;50.082;18.554;2024-01-07T06:31:43;8.1;;;4.1;;
23360;SDS011;11852;50.082;18.554;2024-01-07T06:32:50;8.1;;;4.1;;
23360;SDS011;11852;50.082;18.554;2024-01-07T06:33:55;9.4;;;4.4;;
23360;SDS011;11852;50.082;18.554;2024-01-07T06:35:00;9.4;;;4.4;;
23360;SDS011;11852;50.082;18.554;2024-01-07T06:36:05;9.2;;;4.6;;